sensor_id;sensor_type;location;lat;lon;timestamp;P1;durP1;ratioP1;P2;durP2;ratioP2
36403;SDS011;22437;55.646;37.518;2022-08-23T00:01:56;31.38;;;18.63;;
36403;SDS011;22437;55.646;37.518;2022-08-23T00:04:28;31.55;;;19.10;;
36403;SDS011;22437;55.646;37.518;2022-08-23T00:07:01;25.88;;;17.30;;
36403;SDS011;22437;55.646;37.518;2022-08-23T00:09:36;25.60;;;17.92;;
36403;SDS011;22437;55.646;37.518;2022-08-23T00:12:08;28.50;;;17.67;;
36403;SDS011;22437;55.646;37.518;2022-08-23T00:14:41;23.17;;;16.27;;
36403;SDS011;22437;55.646;37.518;2022-08-23T00:17:14;24.85;;;17.17;;
36403;SDS011;22437;55.646;37.518;2022-08-23T00:20:01;23.27;;;16.40;;
36403;SDS011;22437;55.646;37.518;2022-08-23T00:22:30;24.13;;;16.63;;
36403;SDS011;22437;55.646;37.518;2022-08-23T00:25:01;28.02;;;16.13;;
36403;SDS011;22437;55.646;37.518;2022-08-23T00:27:31;25.98;;;16.00;;
36403;SDS011;22437;55.646;37.518;2022-08-23T00:30:01;22.35;;;15.13;;
36403;SDS011;22437;55.646;37.518;2022-08-23T00:32:35;23.60;;;14.60;;
36403;SDS011;22437;55.646;37.518;2022-08-23T00:35:07;23.27;;;16.15;;
36403;SDS011;22437;55.646;37.518;2022-08-23T00:37:49;26.73;;;15.38;;
36403;SDS011;22437;55.646;37.518;2022-08-23T00:40:40;23.02;;;15.65;;
36403;SDS011;22437;55.646;37.518;2022-08-23T00:43:11;26.42;;;17.10;;
36403;SDS011;22437;55.646;37.518;2022-08-23T00:46:04;23.23;;;15.07;;
36403;SDS011;22437;55.646;37.518;2022-08-23T00:48:59;27.25;;;16.38;;
36403;SDS011;22437;55.646;37.518;2022-08-23T00:51:33;24.63;;;16.77;;
36403;SDS011;22437;55.646;37.518;2022-08-23T00:54:18;31.10;;;15.95;;
36403;SDS011;22437;55.646;37.518;2022-08-23T00:56:50;29.10;;;16.67;;
36403;SDS011;22437;55.646;37.518;2022-08-23T00:59:20;29.58;;;17.58;;
36403;SDS011;22437;55.646;37.518;2022-08-23T01:01:50;22.50;;;15.00;;
36403;SDS011;22437;55.646;37.518;2022-08-23T01:04:20;20.52;;;15.43;;
36403;SDS011;22437;55.646;37.518;2022-08-23T01:06:50;25.05;;;16.42;;
36403;SDS011;22437;55.646;37.518;2022-08-23T01:09:27;30.58;;;17.08;;
36403;SDS011;22437;55.646;37.518;2022-08-23T01:11:59;21.45;;;16.20;;
36403;SDS011;22437;55.646;37.518;2022-08-23T01:14:35;25.30;;;16.55;;
36403;SDS011;22437;55.646;37.518;2022-08-23T01:17:09;26.67;;;16.38;;
36403;SDS011;22437;55.646;37.518;2022-08-23T01:19:56;22.75;;;15.20;;
36403;SDS011;22437;55.646;37.518;2022-08-23T01:22:31;22.85;;;15.25;;
36403;SDS011;22437;55.646;37.518;2022-08-23T01:25:10;21.23;;;14.73;;
36403;SDS011;22437;55.646;37.518;2022-08-23T01:27:44;25.27;;;14.52;;
36403;SDS011;22437;55.646;37.518;2022-08-23T01:30:16;27.05;;;14.68;;
36403;SDS011;22437;55.646;37.518;2022-08-23T01:32:48;22.73;;;14.98;;
36403;SDS011;22437;55.646;37.518;2022-08-23T01:35:22;22.52;;;14.77;;
36403;SDS011;22437;55.646;37.518;2022-08-23T01:37:58;23.30;;;14.20;;
36403;SDS011;22437;55.646;37.518;2022-08-23T01:40:30;22.20;;;15.48;;
36403;SDS011;22437;55.646;37.518;2022-08-23T01:45:30;25.88;;;14.75;;
36403;SDS011;22437;55.646;37.518;2022-08-23T01:48:00;26.20;;;14.88;;
36403;SDS011;22437;55.646;37.518;2022-08-23T01:50:31;26.65;;;14.98;;
36403;SDS011;22437;55.646;37.518;2022-08-23T01:53:01;23.70;;;15.23;;
36403;SDS011;22437;55.646;37.518;2022-08-23T01:55:32;23.15;;;14.18;;
36403;SDS011;22437;55.646;37.518;2022-08-23T01:58:02;21.73;;;14.10;;
36403;SDS011;22437;55.646;37.518;2022-08-23T02:00:33;19.73;;;14.18;;
36403;SDS011;22437;55.646;37.518;2022-08-23T02:03:05;19.83;;;14.25;;
36403;SDS011;22437;55.646;37.518;2022-08-23T02:05:35;20.92;;;14.35;;
36403;SDS011;22437;55.646;37.518;2022-08-23T02:08:06;21.58;;;14.90;;
36403;SDS011;22437;55.646;37.518;2022-08-23T02:10:58;24.15;;;13.18;;
36403;SDS011;22437;55.646;37.518;2022-08-23T02:13:27;20.50;;;13.93;;
36403;SDS011;22437;55.646;37.518;2022-08-23T02:15:57;23.20;;;14.48;;
36403;SDS011;22437;55.646;37.518;2022-08-23T02:18:28;21.37;;;13.40;;
36403;SDS011;22437;55.646;37.518;2022-08-23T02:20:57;21.63;;;13.77;;
36403;SDS011;22437;55.646;37.518;2022-08-23T02:23:27;23.35;;;14.77;;
36403;SDS011;22437;55.646;37.518;2022-08-23T02:25:58;22.75;;;13.75;;
36403;SDS011;22437;55.646;37.518;2022-08-23T02:30:56;19.98;;;13.07;;
36403;SDS011;22437;55.646;37.518;2022-08-23T02:33:26;25.63;;;14.30;;
36403;SDS011;22437;55.646;37.518;2022-08-23T02:35:55;19.95;;;13.00;;
36403;SDS011;22437;55.646;37.518;2022-08-23T02:38:24;20.85;;;13.80;;
36403;SDS011;22437;55.646;37.518;2022-08-23T02:40:54;24.67;;;13.25;;
36403;SDS011;22437;55.646;37.518;2022-08-23T02:43:30;20.45;;;12.75;;
36403;SDS011;22437;55.646;37.518;2022-08-23T02:46:08;18.63;;;13.32;;
36403;SDS011;22437;55.646;37.518;2022-08-23T02:48:37;20.25;;;13.25;;
36403;SDS011;22437;55.646;37.518;2022-08-23T02:51:07;23.08;;;12.52;;
36403;SDS011;22437;55.646;37.518;2022-08-23T02:53:36;22.40;;;13.35;;
36403;SDS011;22437;55.646;37.518;2022-08-23T02:56:09;15.77;;;12.43;;
36403;SDS011;22437;55.646;37.518;2022-08-23T02:58:50;23.65;;;13.95;;
36403;SDS011;22437;55.646;37.518;2022-08-23T03:01:23;17.88;;;12.93;;
36403;SDS011;22437;55.646;37.518;2022-08-23T03:03:59;22.55;;;13.60;;
36403;SDS011;22437;55.646;37.518;2022-08-23T03:06:29;19.23;;;12.32;;
36403;SDS011;22437;55.646;37.518;2022-08-23T03:08:59;22.30;;;13.73;;
36403;SDS011;22437;55.646;37.518;2022-08-23T03:11:29;29.80;;;15.57;;
36403;SDS011;22437;55.646;37.518;2022-08-23T03:14:00;19.70;;;13.15;;
36403;SDS011;22437;55.646;37.518;2022-08-23T03:16:30;22.85;;;14.07;;
36403;SDS011;22437;55.646;37.518;2022-08-23T03:19:00;21.45;;;13.68;;
36403;SDS011;22437;55.646;37.518;2022-08-23T03:21:29;20.55;;;13.93;;
36403;SDS011;22437;55.646;37.518;2022-08-23T03:23:59;18.10;;;13.38;;
36403;SDS011;22437;55.646;37.518;2022-08-23T03:26:35;21.73;;;13.50;;
36403;SDS011;22437;55.646;37.518;2022-08-23T03:29:06;18.45;;;13.50;;
36403;SDS011;22437;55.646;37.518;2022-08-23T03:31:53;18.30;;;13.10;;
36403;SDS011;22437;55.646;37.518;2022-08-23T03:34:24;18.27;;;13.68;;
36403;SDS011;22437;55.646;37.518;2022-08-23T03:36:53;19.08;;;13.25;;
36403;SDS011;22437;55.646;37.518;2022-08-23T03:39:23;16.85;;;12.57;;
36403;SDS011;22437;55.646;37.518;2022-08-23T03:41:55;17.52;;;12.27;;
36403;SDS011;22437;55.646;37.518;2022-08-23T03:44:30;21.45;;;13.55;;
36403;SDS011;22437;55.646;37.518;2022-08-23T03:46:59;20.23;;;11.88;;
36403;SDS011;22437;55.646;37.518;2022-08-23T03:49:29;19.77;;;12.70;;
36403;SDS011;22437;55.646;37.518;2022-08-23T03:52:02;20.48;;;12.48;;
36403;SDS011;22437;55.646;37.518;2022-08-23T03:54:33;17.90;;;11.93;;
36403;SDS011;22437;55.646;37.518;2022-08-23T03:57:04;14.00;;;10.68;;
36403;SDS011;22437;55.646;37.518;2022-08-23T03:59:39;17.48;;;12.73;;
36403;SDS011;22437;55.646;37.518;2022-08-23T04:02:10;17.33;;;12.20;;
36403;SDS011;22437;55.646;37.518;2022-08-23T04:04:40;22.10;;;13.15;;
36403;SDS011;22437;55.646;37.518;2022-08-23T04:07:22;17.23;;;11.13;;
36403;SDS011;22437;55.646;37.518;2022-08-23T04:09:54;18.65;;;11.85;;
36403;SDS011;22437;55.646;37.518;2022-08-23T04:12:30;19.27;;;12.50;;
36403;SDS011;22437;55.646;37.518;2022-08-23T04:15:01;14.05;;;10.50;;
36403;SDS011;22437;55.646;37.518;2022-08-23T04:17:36;19.27;;;11.40;;
36403;SDS011;22437;55.646;37.518;2022-08-23T04:20:11;14.18;;;10.00;;
36403;SDS011;22437;55.646;37.518;2022-08-23T04:22:55;16.38;;;11.35;;
36403;SDS011;22437;55.646;37.518;2022-08-23T04:25:27;18.15;;;10.75;;
36403;SDS011;22437;55.646;37.518;2022-08-23T04:28:03;19.77;;;12.35;;
36403;SDS011;22437;55.646;37.518;2022-08-23T04:30:35;19.45;;;12.40;;
36403;SDS011;22437;55.646;37.518;2022-08-23T04:33:04;16.52;;;11.70;;
36403;SDS011;22437;55.646;37.518;2022-08-23T04:35:38;17.98;;;12.07;;
36403;SDS011;22437;55.646;37.518;2022-08-23T04:38:09;18.70;;;12.43;;
36403;SDS011;22437;55.646;37.518;2022-08-23T04:40:57;17.85;;;12.93;;
36403;SDS011;22437;55.646;37.518;2022-08-23T04:43:46;17.85;;;11.30;;
36403;SDS011;22437;55.646;37.518;2022-08-23T04:46:20;20.27;;;11.80;;
36403;SDS011;22437;55.646;37.518;2022-08-23T04:48:50;14.50;;;10.27;;
36403;SDS011;22437;55.646;37.518;2022-08-23T04:51:21;20.50;;;12.13;;
36403;SDS011;22437;55.646;37.518;2022-08-23T04:53:50;20.60;;;11.57;;
36403;SDS011;22437;55.646;37.518;2022-08-23T04:56:30;22.98;;;12.88;;
36403;SDS011;22437;55.646;37.518;2022-08-23T04:59:02;17.30;;;10.18;;
36403;SDS011;22437;55.646;37.518;2022-08-23T05:01:34;16.02;;;11.15;;
36403;SDS011;22437;55.646;37.518;2022-08-23T05:04:03;17.92;;;10.93;;
36403;SDS011;22437;55.646;37.518;2022-08-23T05:06:36;16.42;;;11.55;;
36403;SDS011;22437;55.646;37.518;2022-08-23T05:09:07;18.23;;;10.82;;
36403;SDS011;22437;55.646;37.518;2022-08-23T05:11:37;17.25;;;11.85;;
36403;SDS011;22437;55.646;37.518;2022-08-23T05:14:07;18.30;;;11.55;;
36403;SDS011;22437;55.646;37.518;2022-08-23T05:16:38;19.15;;;12.13;;
36403;SDS011;22437;55.646;37.518;2022-08-23T05:19:09;17.25;;;12.02;;
36403;SDS011;22437;55.646;37.518;2022-08-23T05:21:43;21.20;;;12.02;;
36403;SDS011;22437;55.646;37.518;2022-08-23T05:24:14;18.75;;;11.73;;
36403;SDS011;22437;55.646;37.518;2022-08-23T05:26:46;19.15;;;11.70;;
36403;SDS011;22437;55.646;37.518;2022-08-23T05:29:15;17.77;;;11.38;;
36403;SDS011;22437;55.646;37.518;2022-08-23T05:31:53;17.42;;;12.30;;
36403;SDS011;22437;55.646;37.518;2022-08-23T05:34:24;17.20;;;10.38;;
36403;SDS011;22437;55.646;37.518;2022-08-23T05:37:01;19.05;;;11.63;;
36403;SDS011;22437;55.646;37.518;2022-08-23T05:42:10;17.52;;;10.15;;
36403;SDS011;22437;55.646;37.518;2022-08-23T05:44:44;17.83;;;10.00;;
36403;SDS011;22437;55.646;37.518;2022-08-23T05:47:16;21.15;;;10.48;;
36403;SDS011;22437;55.646;37.518;2022-08-23T05:50:17;15.95;;;9.98;;
36403;SDS011;22437;55.646;37.518;2022-08-23T05:52:49;15.13;;;10.25;;
36403;SDS011;22437;55.646;37.518;2022-08-23T05:55:19;15.15;;;9.70;;
36403;SDS011;22437;55.646;37.518;2022-08-23T05:58:17;14.75;;;10.15;;
36403;SDS011;22437;55.646;37.518;2022-08-23T06:00:47;13.98;;;9.68;;
36403;SDS011;22437;55.646;37.518;2022-08-23T06:03:19;16.75;;;9.52;;
36403;SDS011;22437;55.646;37.518;2022-08-23T06:05:55;18.30;;;9.57;;
36403;SDS011;22437;55.646;37.518;2022-08-23T06:08:25;18.15;;;10.10;;
36403;SDS011;22437;55.646;37.518;2022-08-23T06:10:58;15.05;;;10.75;;
36403;SDS011;22437;55.646;37.518;2022-08-23T06:13:38;16.40;;;10.23;;
36403;SDS011;22437;55.646;37.518;2022-08-23T06:16:12;16.27;;;9.82;;
36403;SDS011;22437;55.646;37.518;2022-08-23T06:18:53;15.15;;;10.63;;
36403;SDS011;22437;55.646;37.518;2022-08-23T06:21:42;14.40;;;9.88;;
36403;SDS011;22437;55.646;37.518;2022-08-23T06:24:13;16.17;;;10.73;;
36403;SDS011;22437;55.646;37.518;2022-08-23T06:26:53;19.13;;;11.07;;
36403;SDS011;22437;55.646;37.518;2022-08-23T06:29:26;20.58;;;10.60;;
36403;SDS011;22437;55.646;37.518;2022-08-23T06:32:16;17.40;;;10.10;;
36403;SDS011;22437;55.646;37.518;2022-08-23T06:35:06;17.40;;;11.02;;
36403;SDS011;22437;55.646;37.518;2022-08-23T06:38:04;18.20;;;10.35;;
36403;SDS011;22437;55.646;37.518;2022-08-23T06:40:58;17.88;;;10.38;;
36403;SDS011;22437;55.646;37.518;2022-08-23T06:43:38;14.63;;;10.18;;
36403;SDS011;22437;55.646;37.518;2022-08-23T06:46:29;17.77;;;10.30;;
36403;SDS011;22437;55.646;37.518;2022-08-23T06:49:00;15.60;;;10.43;;
36403;SDS011;22437;55.646;37.518;2022-08-23T06:51:37;17.77;;;10.10;;
36403;SDS011;22437;55.646;37.518;2022-08-23T06:54:29;13.63;;;9.55;;
36403;SDS011;22437;55.646;37.518;2022-08-23T06:57:31;21.23;;;9.10;;
36403;SDS011;22437;55.646;37.518;2022-08-23T07:00:24;13.48;;;9.57;;
36403;SDS011;22437;55.646;37.518;2022-08-23T07:03:11;19.70;;;11.63;;
36403;SDS011;22437;55.646;37.518;2022-08-23T07:06:00;17.52;;;11.90;;
36403;SDS011;22437;55.646;37.518;2022-08-23T07:08:33;21.77;;;11.95;;
36403;SDS011;22437;55.646;37.518;2022-08-23T07:11:03;22.52;;;13.32;;
36403;SDS011;22437;55.646;37.518;2022-08-23T07:13:33;21.30;;;13.35;;
36403;SDS011;22437;55.646;37.518;2022-08-23T07:16:03;16.38;;;12.23;;
36403;SDS011;22437;55.646;37.518;2022-08-23T07:18:33;18.52;;;12.65;;
36403;SDS011;22437;55.646;37.518;2022-08-23T07:21:04;21.77;;;13.45;;
36403;SDS011;22437;55.646;37.518;2022-08-23T07:23:37;20.42;;;13.50;;
36403;SDS011;22437;55.646;37.518;2022-08-23T07:26:13;18.20;;;12.68;;
36403;SDS011;22437;55.646;37.518;2022-08-23T07:28:46;18.90;;;12.48;;
36403;SDS011;22437;55.646;37.518;2022-08-23T07:31:16;24.40;;;12.67;;
36403;SDS011;22437;55.646;37.518;2022-08-23T07:33:48;16.63;;;10.50;;
36403;SDS011;22437;55.646;37.518;2022-08-23T07:36:21;14.88;;;11.35;;
36403;SDS011;22437;55.646;37.518;2022-08-23T07:38:57;15.93;;;10.55;;
36403;SDS011;22437;55.646;37.518;2022-08-23T07:41:29;17.52;;;10.27;;
36403;SDS011;22437;55.646;37.518;2022-08-23T07:44:01;17.58;;;10.57;;
36403;SDS011;22437;55.646;37.518;2022-08-23T07:49:03;19.33;;;9.93;;
36403;SDS011;22437;55.646;37.518;2022-08-23T07:51:37;14.25;;;9.23;;
36403;SDS011;22437;55.646;37.518;2022-08-23T07:54:10;17.63;;;10.00;;
36403;SDS011;22437;55.646;37.518;2022-08-23T07:56:57;14.85;;;9.30;;
36403;SDS011;22437;55.646;37.518;2022-08-23T07:59:46;13.93;;;10.00;;
36403;SDS011;22437;55.646;37.518;2022-08-23T08:02:39;14.57;;;9.63;;
36403;SDS011;22437;55.646;37.518;2022-08-23T08:05:18;11.77;;;9.05;;
36403;SDS011;22437;55.646;37.518;2022-08-23T08:07:50;18.38;;;9.13;;
36403;SDS011;22437;55.646;37.518;2022-08-23T08:10:22;11.80;;;8.60;;
36403;SDS011;22437;55.646;37.518;2022-08-23T08:12:52;14.68;;;9.30;;
36403;SDS011;22437;55.646;37.518;2022-08-23T08:15:24;17.40;;;9.57;;
36403;SDS011;22437;55.646;37.518;2022-08-23T08:18:02;15.40;;;9.43;;
36403;SDS011;22437;55.646;37.518;2022-08-23T08:20:53;15.03;;;9.50;;
36403;SDS011;22437;55.646;37.518;2022-08-23T08:23:30;10.65;;;8.50;;
36403;SDS011;22437;55.646;37.518;2022-08-23T08:26:27;16.73;;;9.00;;
36403;SDS011;22437;55.646;37.518;2022-08-23T08:28:56;21.83;;;8.93;;
36403;SDS011;22437;55.646;37.518;2022-08-23T08:31:30;11.25;;;8.85;;
36403;SDS011;22437;55.646;37.518;2022-08-23T08:34:06;13.55;;;8.45;;
36403;SDS011;22437;55.646;37.518;2022-08-23T08:36:39;13.73;;;9.32;;
36403;SDS011;22437;55.646;37.518;2022-08-23T08:39:18;18.13;;;8.52;;
36403;SDS011;22437;55.646;37.518;2022-08-23T08:41:57;14.57;;;8.75;;
36403;SDS011;22437;55.646;37.518;2022-08-23T08:44:47;13.75;;;9.75;;
36403;SDS011;22437;55.646;37.518;2022-08-23T08:47:28;16.13;;;9.20;;
36403;SDS011;22437;55.646;37.518;2022-08-23T08:50:05;15.82;;;9.15;;
36403;SDS011;22437;55.646;37.518;2022-08-23T08:52:42;12.18;;;9.40;;
36403;SDS011;22437;55.646;37.518;2022-08-23T08:55:30;13.02;;;8.95;;
36403;SDS011;22437;55.646;37.518;2022-08-23T08:58:06;13.10;;;9.27;;
36403;SDS011;22437;55.646;37.518;2022-08-23T09:00:44;14.52;;;9.18;;
36403;SDS011;22437;55.646;37.518;2022-08-23T09:03:18;10.30;;;8.63;;
36403;SDS011;22437;55.646;37.518;2022-08-23T09:05:51;13.18;;;9.30;;
36403;SDS011;22437;55.646;37.518;2022-08-23T09:08:32;10.13;;;8.43;;
36403;SDS011;22437;55.646;37.518;2022-08-23T09:11:16;14.77;;;8.77;;
36403;SDS011;22437;55.646;37.518;2022-08-23T09:16:50;12.68;;;9.43;;
36403;SDS011;22437;55.646;37.518;2022-08-23T09:19:25;15.13;;;8.88;;
36403;SDS011;22437;55.646;37.518;2022-08-23T09:21:57;12.30;;;8.95;;
36403;SDS011;22437;55.646;37.518;2022-08-23T09:24:31;9.93;;;8.18;;
36403;SDS011;22437;55.646;37.518;2022-08-23T09:27:08;10.45;;;8.75;;
36403;SDS011;22437;55.646;37.518;2022-08-23T09:29:51;13.48;;;8.65;;
36403;SDS011;22437;55.646;37.518;2022-08-23T09:32:25;10.05;;;8.30;;
36403;SDS011;22437;55.646;37.518;2022-08-23T09:35:07;15.73;;;7.60;;
36403;SDS011;22437;55.646;37.518;2022-08-23T09:37:52;10.63;;;8.30;;
36403;SDS011;22437;55.646;37.518;2022-08-23T09:40:29;10.02;;;8.20;;
36403;SDS011;22437;55.646;37.518;2022-08-23T09:43:13;12.48;;;8.85;;
36403;SDS011;22437;55.646;37.518;2022-08-23T09:46:00;9.43;;;8.13;;
36403;SDS011;22437;55.646;37.518;2022-08-23T09:48:39;12.25;;;9.63;;
36403;SDS011;22437;55.646;37.518;2022-08-23T09:51:18;12.48;;;8.55;;
36403;SDS011;22437;55.646;37.518;2022-08-23T09:54:02;7.85;;;7.10;;
36403;SDS011;22437;55.646;37.518;2022-08-23T09:56:35;8.98;;;6.25;;
36403;SDS011;22437;55.646;37.518;2022-08-23T09:59:20;8.55;;;6.57;;
36403;SDS011;22437;55.646;37.518;2022-08-23T10:02:03;7.20;;;6.07;;
36403;SDS011;22437;55.646;37.518;2022-08-23T10:04:53;8.60;;;6.38;;
36403;SDS011;22437;55.646;37.518;2022-08-23T10:07:32;9.15;;;7.18;;
36403;SDS011;22437;55.646;37.518;2022-08-23T10:10:16;9.88;;;7.18;;
36403;SDS011;22437;55.646;37.518;2022-08-23T10:12:51;12.05;;;6.05;;
36403;SDS011;22437;55.646;37.518;2022-08-23T10:15:35;8.70;;;6.20;;
36403;SDS011;22437;55.646;37.518;2022-08-23T10:18:20;9.82;;;5.80;;
36403;SDS011;22437;55.646;37.518;2022-08-23T10:21:03;7.40;;;6.18;;
36403;SDS011;22437;55.646;37.518;2022-08-23T10:24:07;14.27;;;6.13;;
36403;SDS011;22437;55.646;37.518;2022-08-23T10:26:45;7.32;;;6.10;;
36403;SDS011;22437;55.646;37.518;2022-08-23T10:29:30;6.10;;;5.20;;
36403;SDS011;22437;55.646;37.518;2022-08-23T10:32:09;8.40;;;6.30;;
36403;SDS011;22437;55.646;37.518;2022-08-23T10:34:59;6.75;;;5.85;;
36403;SDS011;22437;55.646;37.518;2022-08-23T10:37:41;8.27;;;5.78;;
36403;SDS011;22437;55.646;37.518;2022-08-23T10:40:22;6.88;;;5.97;;
36403;SDS011;22437;55.646;37.518;2022-08-23T10:42:59;7.38;;;6.65;;
36403;SDS011;22437;55.646;37.518;2022-08-23T10:45:42;8.30;;;6.32;;
36403;SDS011;22437;55.646;37.518;2022-08-23T10:48:26;7.85;;;6.10;;
36403;SDS011;22437;55.646;37.518;2022-08-23T10:51:03;7.93;;;6.72;;
36403;SDS011;22437;55.646;37.518;2022-08-23T10:53:39;7.93;;;6.55;;
36403;SDS011;22437;55.646;37.518;2022-08-23T10:56:14;7.25;;;5.78;;
36403;SDS011;22437;55.646;37.518;2022-08-23T10:58:53;6.28;;;5.65;;
36403;SDS011;22437;55.646;37.518;2022-08-23T11:01:40;9.82;;;5.90;;
36403;SDS011;22437;55.646;37.518;2022-08-23T11:04:16;5.80;;;5.20;;
36403;SDS011;22437;55.646;37.518;2022-08-23T11:07:17;6.60;;;5.68;;
36403;SDS011;22437;55.646;37.518;2022-08-23T11:09:51;9.70;;;5.15;;
36403;SDS011;22437;55.646;37.518;2022-08-23T11:12:30;6.65;;;5.65;;
36403;SDS011;22437;55.646;37.518;2022-08-23T11:15:07;6.47;;;5.25;;
36403;SDS011;22437;55.646;37.518;2022-08-23T11:17:55;9.48;;;5.55;;
36403;SDS011;22437;55.646;37.518;2022-08-23T11:23:42;10.95;;;5.45;;
36403;SDS011;22437;55.646;37.518;2022-08-23T11:29:40;12.88;;;7.57;;
36403;SDS011;22437;55.646;37.518;2022-08-23T11:32:35;7.35;;;5.88;;
36403;SDS011;22437;55.646;37.518;2022-08-23T11:35:29;8.23;;;6.00;;
36403;SDS011;22437;55.646;37.518;2022-08-23T11:38:13;10.73;;;7.93;;
36403;SDS011;22437;55.646;37.518;2022-08-23T11:43:39;6.85;;;6.13;;
36403;SDS011;22437;55.646;37.518;2022-08-23T11:51:57;6.65;;;5.60;;
36403;SDS011;22437;55.646;37.518;2022-08-23T11:54:37;6.15;;;5.35;;
36403;SDS011;22437;55.646;37.518;2022-08-23T11:57:21;7.05;;;4.75;;
36403;SDS011;22437;55.646;37.518;2022-08-23T12:00:05;6.60;;;5.90;;
36403;SDS011;22437;55.646;37.518;2022-08-23T12:02:57;6.87;;;6.17;;
36403;SDS011;22437;55.646;37.518;2022-08-23T12:05:41;7.05;;;5.50;;
36403;SDS011;22437;55.646;37.518;2022-08-23T12:08:45;6.90;;;5.30;;
36403;SDS011;22437;55.646;37.518;2022-08-23T12:11:22;5.95;;;5.35;;
36403;SDS011;22437;55.646;37.518;2022-08-23T12:13:58;6.70;;;5.57;;
36403;SDS011;22437;55.646;37.518;2022-08-23T12:16:32;8.27;;;6.28;;
36403;SDS011;22437;55.646;37.518;2022-08-23T12:19:16;8.88;;;6.35;;
36403;SDS011;22437;55.646;37.518;2022-08-23T12:21:56;8.00;;;6.68;;
36403;SDS011;22437;55.646;37.518;2022-08-23T12:24:39;8.35;;;5.82;;
36403;SDS011;22437;55.646;37.518;2022-08-23T12:27:15;7.10;;;5.80;;
36403;SDS011;22437;55.646;37.518;2022-08-23T12:30:00;6.32;;;5.55;;
36403;SDS011;22437;55.646;37.518;2022-08-23T12:32:34;8.48;;;5.70;;
36403;SDS011;22437;55.646;37.518;2022-08-23T12:35:17;7.53;;;5.95;;
36403;SDS011;22437;55.646;37.518;2022-08-23T12:38:00;9.95;;;6.25;;
36403;SDS011;22437;55.646;37.518;2022-08-23T12:40:35;7.57;;;6.05;;
36403;SDS011;22437;55.646;37.518;2022-08-23T12:43:10;9.48;;;5.47;;
36403;SDS011;22437;55.646;37.518;2022-08-23T12:45:52;7.47;;;5.72;;
36403;SDS011;22437;55.646;37.518;2022-08-23T12:48:24;11.57;;;6.70;;
36403;SDS011;22437;55.646;37.518;2022-08-23T12:50:58;10.25;;;6.30;;
36403;SDS011;22437;55.646;37.518;2022-08-23T12:53:30;7.00;;;5.70;;
36403;SDS011;22437;55.646;37.518;2022-08-23T12:56:19;9.50;;;6.13;;
36403;SDS011;22437;55.646;37.518;2022-08-23T12:58:58;8.55;;;7.18;;
36403;SDS011;22437;55.646;37.518;2022-08-23T13:01:33;7.45;;;5.85;;
36403;SDS011;22437;55.646;37.518;2022-08-23T13:04:05;6.85;;;6.15;;
36403;SDS011;22437;55.646;37.518;2022-08-23T13:06:38;8.88;;;7.03;;
36403;SDS011;22437;55.646;37.518;2022-08-23T13:09:12;8.10;;;6.43;;
36403;SDS011;22437;55.646;37.518;2022-08-23T13:11:47;10.00;;;6.63;;
36403;SDS011;22437;55.646;37.518;2022-08-23T13:14:22;13.15;;;6.88;;
36403;SDS011;22437;55.646;37.518;2022-08-23T13:17:06;7.57;;;6.15;;
36403;SDS011;22437;55.646;37.518;2022-08-23T13:19:41;9.68;;;6.95;;
36403;SDS011;22437;55.646;37.518;2022-08-23T13:22:12;7.60;;;6.20;;
36403;SDS011;22437;55.646;37.518;2022-08-23T13:24:59;10.00;;;5.75;;
36403;SDS011;22437;55.646;37.518;2022-08-23T13:27:52;7.20;;;6.07;;
36403;SDS011;22437;55.646;37.518;2022-08-23T13:30:25;7.43;;;6.15;;
36403;SDS011;22437;55.646;37.518;2022-08-23T13:35:50;6.53;;;5.65;;
36403;SDS011;22437;55.646;37.518;2022-08-23T13:38:39;7.20;;;5.80;;
36403;SDS011;22437;55.646;37.518;2022-08-23T13:41:10;7.30;;;6.32;;
36403;SDS011;22437;55.646;37.518;2022-08-23T13:43:54;10.80;;;5.90;;
36403;SDS011;22437;55.646;37.518;2022-08-23T13:46:28;10.43;;;5.88;;
36403;SDS011;22437;55.646;37.518;2022-08-23T13:49:08;7.70;;;6.25;;
36403;SDS011;22437;55.646;37.518;2022-08-23T13:51:41;8.40;;;6.68;;
36403;SDS011;22437;55.646;37.518;2022-08-23T13:54:14;7.60;;;6.13;;
36403;SDS011;22437;55.646;37.518;2022-08-23T13:56:44;5.90;;;5.03;;
36403;SDS011;22437;55.646;37.518;2022-08-23T13:59:21;6.90;;;4.82;;
36403;SDS011;22437;55.646;37.518;2022-08-23T14:01:58;7.10;;;4.85;;
36403;SDS011;22437;55.646;37.518;2022-08-23T14:04:30;13.73;;;5.47;;
36403;SDS011;22437;55.646;37.518;2022-08-23T14:07:02;9.15;;;5.38;;
36403;SDS011;22437;55.646;37.518;2022-08-23T14:09:32;8.90;;;5.53;;
36403;SDS011;22437;55.646;37.518;2022-08-23T14:12:03;7.80;;;5.28;;
36403;SDS011;22437;55.646;37.518;2022-08-23T14:14:35;11.10;;;6.05;;
36403;SDS011;22437;55.646;37.518;2022-08-23T14:17:06;10.23;;;5.82;;
36403;SDS011;22437;55.646;37.518;2022-08-23T14:19:41;6.90;;;5.30;;
36403;SDS011;22437;55.646;37.518;2022-08-23T14:22:33;6.82;;;5.60;;
36403;SDS011;22437;55.646;37.518;2022-08-23T14:25:04;10.20;;;6.07;;
36403;SDS011;22437;55.646;37.518;2022-08-23T14:27:34;9.35;;;5.72;;
36403;SDS011;22437;55.646;37.518;2022-08-23T14:30:08;9.05;;;5.60;;
36403;SDS011;22437;55.646;37.518;2022-08-23T14:32:40;9.13;;;5.50;;
36403;SDS011;22437;55.646;37.518;2022-08-23T14:35:11;10.40;;;5.55;;
36403;SDS011;22437;55.646;37.518;2022-08-23T14:37:42;6.47;;;4.35;;
36403;SDS011;22437;55.646;37.518;2022-08-23T14:40:34;9.40;;;5.57;;
36403;SDS011;22437;55.646;37.518;2022-08-23T14:43:04;7.55;;;5.50;;
36403;SDS011;22437;55.646;37.518;2022-08-23T14:45:33;9.40;;;4.90;;
36403;SDS011;22437;55.646;37.518;2022-08-23T14:48:03;11.15;;;5.20;;
36403;SDS011;22437;55.646;37.518;2022-08-23T14:50:37;8.27;;;5.85;;
36403;SDS011;22437;55.646;37.518;2022-08-23T14:53:08;7.68;;;4.88;;
36403;SDS011;22437;55.646;37.518;2022-08-23T14:55:38;9.30;;;5.53;;
36403;SDS011;22437;55.646;37.518;2022-08-23T14:58:09;14.25;;;5.80;;
36403;SDS011;22437;55.646;37.518;2022-08-23T15:00:39;7.93;;;5.70;;
36403;SDS011;22437;55.646;37.518;2022-08-23T15:03:09;11.53;;;5.77;;
36403;SDS011;22437;55.646;37.518;2022-08-23T15:05:42;11.13;;;5.85;;
36403;SDS011;22437;55.646;37.518;2022-08-23T15:08:12;8.05;;;6.35;;
36403;SDS011;22437;55.646;37.518;2022-08-23T15:10:41;14.00;;;6.68;;
36403;SDS011;22437;55.646;37.518;2022-08-23T15:13:35;8.05;;;5.38;;
36403;SDS011;22437;55.646;37.518;2022-08-23T15:16:22;9.45;;;5.82;;
36403;SDS011;22437;55.646;37.518;2022-08-23T15:18:52;8.63;;;5.65;;
36403;SDS011;22437;55.646;37.518;2022-08-23T15:21:25;9.35;;;6.22;;
36403;SDS011;22437;55.646;37.518;2022-08-23T15:23:55;11.00;;;6.55;;
36403;SDS011;22437;55.646;37.518;2022-08-23T15:26:25;12.30;;;5.90;;
36403;SDS011;22437;55.646;37.518;2022-08-23T15:28:57;12.35;;;6.55;;
36403;SDS011;22437;55.646;37.518;2022-08-23T15:31:27;12.47;;;8.10;;
36403;SDS011;22437;55.646;37.518;2022-08-23T15:33:57;10.38;;;6.53;;
36403;SDS011;22437;55.646;37.518;2022-08-23T15:36:29;11.95;;;5.72;;
36403;SDS011;22437;55.646;37.518;2022-08-23T15:39:02;11.23;;;6.70;;
36403;SDS011;22437;55.646;37.518;2022-08-23T15:41:33;15.45;;;5.95;;
36403;SDS011;22437;55.646;37.518;2022-08-23T15:44:03;10.60;;;6.20;;